KGDV

Dawson Community Airport

Glendive, Montana, USA
KGDV 160522Z 1606/1706 VRB06KT P6SM SKC
Issued Valid From Valid To
Dec-16 @ 05:22 UTC
(30 minutes ago)
Dec-16 @ 06:00 UTC
(in 8 minutes)
Dec-17 @ 06:00 UTC
(in 24 hours)
Dec-16 @ 06:00 to Dec-17 @ 06:00
KGDV 160522Z 1606/1706 VRB06KT P6SM SKC
Wind Visibility Clouds
Variable at 6 knots Greater than 6 miles
  • Clear skies
KGDV 160522Z 1606/1706 VRB06KT P6SM SKC
Issued Dec-16 @ 05:22 UTC
(30 minutes ago)
Valid From Dec-16 @ 06:00 UTC
(in 8 minutes)
Valid To Dec-17 @ 06:00 UTC
(in 24 hours)
Dec-16 @ 06:00 - Dec-17 @ 06:00
Wind Visibility
Variable at 6 knots Greater than 6 miles
Clouds
  • Clear skies